createdAt,value
2022-09-05T16:01:59.627Z,48.50
2022-09-05T16:05:11.797Z,51.20
2022-09-05T16:10:26.878Z,57.20
2022-09-05T16:10:35.026Z,54.20
2022-09-05T16:10:48.418Z,46.00
2022-09-05T16:13:36.702Z,46.00
2022-09-05T16:20:15.015Z,40.40
2022-09-05T16:23:16.852Z,41.80
2022-09-05T16:23:20.017Z,37.00
2022-09-05T16:23:24.110Z,72.00
2022-09-05T16:23:39.499Z,66.80
2022-09-05T16:25:16.399Z,62.80
2022-09-05T16:26:49.886Z,64.80
2022-09-05T16:28:24.530Z,53.00
2022-09-05T16:29:56.252Z,57.20
2022-09-05T16:31:41.585Z,49.80
2022-09-05T16:33:29.954Z,57.40
2022-09-05T16:35:04.954Z,49.60
2022-09-05T16:37:08.637Z,49.00
2022-09-05T16:39:09.786Z,50.80
2022-09-05T16:40:42.762Z,58.40
2022-09-05T16:42:46.455Z,46.80
2022-09-05T16:44:29.791Z,56.20
2022-09-05T16:46:35.775Z,50.60
2022-09-05T16:48:41.075Z,48.40
2022-09-05T16:50:50.158Z,54.20
2022-09-05T16:52:22.942Z,50.40
2022-09-05T16:54:22.304Z,58.60
2022-09-05T16:55:56.208Z,60.20
2022-09-05T16:57:35.702Z,74.40
2022-09-05T16:59:13.447Z,64.00
2022-09-05T17:00:57.419Z,54.80
2022-09-05T17:02:36.917Z,52.00
2022-09-05T17:04:16.113Z,76.75
2022-09-05T17:05:48.312Z,68.40
2022-09-05T17:07:30.837Z,61.80
2022-09-05T17:09:12.929Z,61.80
2022-09-05T17:10:58.163Z,48.80
2022-09-05T17:12:37.535Z,61.40
2022-09-05T17:14:15.413Z,52.40
2022-09-05T17:15:51.595Z,62.40
2022-09-05T17:18:18.673Z,47.00
2022-09-05T17:19:26.764Z,51.60
2022-09-05T17:21:10.143Z,54.80
2022-09-05T17:28:43.092Z,73.40
2022-09-05T17:29:23.976Z,60.80
2022-09-05T17:29:26.137Z,80.75
2022-09-05T17:29:31.266Z,52.40
2022-09-05T17:32:52.593Z,55.20
2022-09-05T17:34:33.744Z,55.00
2022-09-05T17:36:18.653Z,45.00
2022-09-05T17:38:12.454Z,171.50
2022-09-05T17:40:02.422Z,175.25
2022-09-05T17:41:43.374Z,175.50
2022-09-05T17:43:33.168Z,168.75
2022-09-05T17:45:26.799Z,151.75
2022-09-05T17:47:25.893Z,151.00
2022-09-05T17:49:19.311Z,153.00
2022-09-05T17:50:54.088Z,134.25
2022-09-05T17:52:26.090Z,133.00
2022-09-05T17:54:02.915Z,137.00
2022-09-05T17:55:37.783Z,118.60
2022-09-05T17:57:27.520Z,129.20
2022-09-05T17:59:12.899Z,134.60
2022-09-05T18:00:45.668Z,133.80
2022-09-05T18:02:17.726Z,104.75
2022-09-05T18:03:49.603Z,111.50
2022-09-05T18:05:57.844Z,119.25
2022-09-05T18:07:49.562Z,117.25
2022-09-05T18:09:40.001Z,116.00
2022-09-05T18:13:32.368Z,112.25
2022-09-05T18:15:25.472Z,109.50
2022-09-05T18:17:36.998Z,105.75
2022-09-05T18:19:28.101Z,102.00
2022-09-05T18:21:21.287Z,111.25
2022-09-05T18:25:27.751Z,102.75
2022-09-05T18:29:57.878Z,92.25
2022-09-05T18:31:40.868Z,90.25
2022-09-05T18:33:55.655Z,98.25
2022-09-05T18:35:26.669Z,94.75
2022-09-05T18:37:36.254Z,87.75
2022-09-05T18:39:26.216Z,87.75
2022-09-05T18:40:58.012Z,85.00
2022-09-05T18:42:34.787Z,87.00
2022-09-05T18:44:13.979Z,85.25
2022-09-05T18:45:54.277Z,85.75
2022-09-05T18:47:51.260Z,96.25
2022-09-05T18:50:21.656Z,88.75
2022-09-05T18:51:31.812Z,85.75
2022-09-05T18:53:09.960Z,83.75
2022-09-05T18:54:51.863Z,80.50
2022-09-05T18:57:12.035Z,83.75
2022-09-05T18:59:10.111Z,76.75
2022-09-05T19:00:44.778Z,79.67
2022-09-05T19:02:41.083Z,80.00
2022-09-05T19:04:39.237Z,83.25
2022-09-05T19:06:36.144Z,79.50
2022-09-05T19:08:12.509Z,91.00
2022-09-05T19:10:34.773Z,147.75
2022-09-05T19:12:32.915Z,125.00
2022-09-05T19:14:38.811Z,126.20
2022-09-05T19:16:44.037Z,116.00
2022-09-05T19:18:26.921Z,109.40
2022-09-05T19:20:30.704Z,119.00
2022-09-05T19:23:08.476Z,124.00
2022-09-05T19:23:57.720Z,117.50
2022-09-05T19:25:35.099Z,100.00
2022-09-05T19:28:29.226Z,101.50
2022-09-05T19:36:47.126Z,106.00
2022-09-05T19:36:57.589Z,116.25
2022-09-05T19:37:02.958Z,83.25
2022-09-05T19:37:10.159Z,93.00
2022-09-05T19:37:26.230Z,84.50
2022-09-05T19:40:07.764Z,97.25
2022-09-05T19:47:00.531Z,98.75
2022-09-05T19:47:27.299Z,82.50
2022-09-05T19:47:40.611Z,77.75
2022-09-05T19:47:48.497Z,93.25
2022-09-05T19:48:28.227Z,87.50
2022-09-05T19:50:06.306Z,89.25
2022-09-05T19:51:38.918Z,80.75
2022-09-05T19:53:13.309Z,87.00
2022-09-05T19:54:45.191Z,75.75
2022-09-05T19:56:17.075Z,76.00
2022-09-05T19:57:56.937Z,70.25
2022-09-05T19:59:44.538Z,79.75
2022-09-05T20:01:18.674Z,78.50
2022-09-05T20:02:55.189Z,73.25
2022-09-05T20:04:30.511Z,69.75
2022-09-05T20:06:02.258Z,67.60
2022-09-05T20:07:36.031Z,76.20
2022-09-05T20:09:14.349Z,65.40
2022-09-05T20:10:46.824Z,83.25
2022-09-05T20:12:24.462Z,141.75
2022-09-05T20:14:16.727Z,138.00
2022-09-05T20:15:49.218Z,103.00
2022-09-05T20:17:26.194Z,112.25
2022-09-05T20:18:57.963Z,98.75
2022-09-05T20:20:30.794Z,95.00
2022-09-05T20:22:35.481Z,101.75
2022-09-05T20:24:00.035Z,97.00
2022-09-05T20:25:42.530Z,90.00
2022-09-05T20:27:16.781Z,95.50
2022-09-05T20:28:52.745Z,111.75
2022-09-05T20:30:30.354Z,140.50
2022-09-05T20:32:02.895Z,116.75
2022-09-05T20:33:48.615Z,122.50
2022-09-05T20:38:58.392Z,126.80
2022-09-05T20:43:11.391Z,137.40
2022-09-05T20:43:20.295Z,129.40
2022-09-05T20:43:22.127Z,119.75
2022-09-05T20:43:35.135Z,137.40
2022-09-05T20:45:09.223Z,124.40
2022-09-05T20:50:22.342Z,105.50
2022-09-05T20:54:08.141Z,113.00
2022-09-05T20:54:08.193Z,129.00
2022-09-05T20:54:18.417Z,117.20
2022-09-05T20:54:34.866Z,117.40
2022-09-05T20:56:10.994Z,115.50
2022-09-05T20:57:42.994Z,94.75
2022-09-05T20:59:35.230Z,115.50
2022-09-05T21:01:21.581Z,107.50
2022-09-05T21:02:58.694Z,88.75
2022-09-05T21:04:38.694Z,109.75
2022-09-05T21:06:20.321Z,101.75
2022-09-05T21:08:07.315Z,95.25
2022-09-05T21:09:57.245Z,110.25
2022-09-05T21:11:31.380Z,97.50
2022-09-05T21:13:03.150Z,88.75
2022-09-05T21:14:35.096Z,106.25
2022-09-05T21:16:24.739Z,98.00
2022-09-05T21:18:01.339Z,94.00
2022-09-05T21:19:34.596Z,92.75
2022-09-05T21:21:14.620Z,84.00
2022-09-05T21:22:58.686Z,82.75
2022-09-05T21:24:31.161Z,76.50
2022-09-05T21:26:04.983Z,75.75
2022-09-05T21:27:36.842Z,77.00
2022-09-05T21:29:27.270Z,67.00
2022-09-05T21:31:12.873Z,105.50
2022-09-05T21:32:48.119Z,199.75
2022-09-05T21:34:28.510Z,227.00
2022-09-05T21:36:01.459Z,167.25
2022-09-05T21:37:33.342Z,165.25
2022-09-05T21:39:05.167Z,148.00
2022-09-05T21:40:41.313Z,151.75
2022-09-05T21:44:29.483Z,140.00
2022-09-05T21:47:39.906Z,144.25
2022-09-05T21:47:42.154Z,153.75
2022-09-05T21:47:53.088Z,126.50
2022-09-05T21:49:26.058Z,133.25
2022-09-05T21:51:00.263Z,158.00
2022-09-05T21:52:32.752Z,114.80
2022-09-05T21:57:00.418Z,129.80
2022-09-05T21:59:25.011Z,145.25
2022-09-05T21:59:28.367Z,135.50
2022-09-05T21:59:57.684Z,138.75
2022-09-05T22:01:51.025Z,128.50
2022-09-05T22:03:24.560Z,136.75
2022-09-05T22:05:03.084Z,136.00
2022-09-05T22:06:35.508Z,130.50
2022-09-05T22:08:07.290Z,120.80
2022-09-05T22:09:39.026Z,133.00
2022-09-05T22:11:12.357Z,113.40
2022-09-05T22:12:44.094Z,122.00
2022-09-05T22:14:16.558Z,103.00
2022-09-05T22:15:48.659Z,111.20
2022-09-05T22:17:22.375Z,112.20
2022-09-05T22:18:56.124Z,102.25
2022-09-05T22:20:27.966Z,99.00
2022-09-05T22:22:02.693Z,394.00
2022-09-05T22:23:34.391Z,358.00
2022-09-05T22:25:21.910Z,277.00
2022-09-05T22:27:11.272Z,278.75
2022-09-05T22:28:51.084Z,218.33
2022-09-05T22:30:23.256Z,226.25
2022-09-05T22:31:54.973Z,181.50
2022-09-05T22:33:26.730Z,200.00
2022-09-05T22:34:58.479Z,173.25
